createdAt,value
2017-10-25T00:00:42.552Z,16.89
2017-10-25T00:01:55.341Z,16.78
2017-10-25T00:03:08.605Z,16.75
2017-10-25T00:04:21.872Z,16.7
2017-10-25T00:05:34.596Z,16.68
2017-10-25T00:06:48.916Z,16.67
2017-10-25T00:08:02.148Z,16.75
2017-10-25T00:09:15.427Z,16.73
2017-10-25T00:10:28.688Z,16.7
2017-10-25T00:11:41.419Z,16.61
2017-10-25T00:12:54.197Z,16.7
2017-10-25T00:14:06.944Z,16.63
2017-10-25T00:15:19.143Z,16.61
2017-10-25T00:16:31.311Z,16.61
2017-10-25T00:17:44.549Z,16.57
2017-10-25T00:18:57.291Z,16.67
2017-10-25T00:20:10.575Z,16.67
2017-10-25T00:21:23.315Z,16.7
2017-10-25T00:22:36.025Z,16.64
2017-10-25T00:23:49.307Z,16.63
2017-10-25T00:25:02.016Z,16.6
2017-10-25T00:26:15.320Z,16.6
2017-10-25T00:27:28.039Z,16.66
2017-10-25T00:28:40.233Z,16.66
2017-10-25T00:29:53.542Z,16.58
2017-10-25T00:31:06.908Z,16.61
2017-10-25T00:32:20.217Z,16.63
2017-10-25T00:33:33.476Z,16.61
2017-10-25T00:34:45.702Z,16.64
2017-10-25T00:35:58.429Z,16.6
2017-10-25T00:37:11.173Z,16.61
2017-10-25T00:38:23.905Z,16.49
2017-10-25T00:39:37.213Z,16.5
2017-10-25T00:40:49.949Z,16.63
2017-10-25T00:42:03.231Z,16.63
2017-10-25T00:43:15.425Z,16.67
2017-10-25T00:44:28.721Z,16.58
2017-10-25T00:45:42.021Z,16.7
2017-10-25T00:46:55.320Z,16.7
2017-10-25T00:48:08.055Z,16.7
2017-10-25T00:49:20.242Z,16.73
2017-10-25T00:50:32.961Z,16.66
2017-10-25T00:51:45.721Z,16.63
2017-10-25T00:52:59.020Z,16.66
2017-10-25T00:54:11.218Z,16.67
2017-10-25T00:55:23.950Z,16.63
2017-10-25T00:56:36.168Z,16.73
2017-10-25T00:57:48.406Z,16.75
2017-10-25T00:59:01.165Z,16.73
2017-10-25T01:00:13.379Z,16.73
2017-10-25T01:01:26.659Z,16.7
2017-10-25T01:02:39.413Z,16.73
2017-10-25T01:03:52.664Z,16.71
2017-10-25T01:05:05.385Z,16.68
2017-10-25T01:06:18.680Z,16.7
2017-10-25T01:07:31.945Z,16.66
2017-10-25T01:08:44.673Z,16.6
2017-10-25T01:09:57.436Z,16.6
2017-10-25T01:11:09.731Z,16.73
2017-10-25T01:12:23.002Z,16.67
2017-10-25T01:13:36.258Z,16.68
2017-10-25T01:14:49.000Z,16.71
2017-10-25T01:16:01.736Z,16.75
2017-10-25T01:17:14.447Z,16.68
2017-10-25T01:18:26.667Z,16.73
2017-10-25T01:19:39.400Z,16.79
2017-10-25T01:20:52.662Z,16.66
2017-10-25T01:22:05.951Z,16.81
2017-10-25T01:23:18.699Z,16.7
2017-10-25T01:24:31.470Z,16.7
2017-10-25T01:25:43.694Z,16.7
2017-10-25T01:26:56.965Z,16.64
2017-10-25T01:28:09.719Z,16.67
2017-10-25T01:29:23.008Z,16.7
2017-10-25T01:30:35.231Z,16.75
2017-10-25T01:31:48.493Z,16.73
2017-10-25T01:33:01.212Z,16.66
2017-10-25T01:34:14.490Z,16.7
2017-10-25T01:35:27.236Z,16.6
2017-10-25T01:36:40.000Z,16.73
2017-10-25T01:37:53.322Z,16.67
2017-10-25T01:39:06.073Z,16.76
2017-10-25T01:40:18.807Z,16.71
2017-10-25T01:41:31.029Z,16.76
2017-10-25T01:42:42.692Z,16.75
2017-10-25T01:43:55.413Z,16.73
2017-10-25T01:45:08.688Z,16.7
2017-10-25T01:46:21.984Z,16.76
2017-10-25T01:47:35.290Z,16.79
2017-10-25T01:48:47.508Z,16.79
2017-10-25T01:50:00.225Z,16.68
2017-10-25T01:51:12.460Z,16.79
2017-10-25T01:52:24.689Z,16.73
2017-10-25T01:53:37.979Z,16.78
2017-10-25T01:54:51.244Z,16.79
2017-10-25T01:56:04.478Z,16.76
2017-10-25T01:57:17.154Z,16.79
2017-10-25T01:58:29.323Z,16.81
2017-10-25T01:59:42.586Z,16.75
2017-10-25T02:00:55.842Z,16.79
2017-10-25T02:02:09.099Z,16.67
2017-10-25T02:03:22.365Z,16.66
2017-10-25T02:04:35.626Z,16.78
2017-10-25T02:05:48.349Z,16.73
2017-10-25T02:07:01.617Z,16.68
2017-10-25T02:08:14.919Z,16.75
2017-10-25T02:09:27.638Z,16.76
2017-10-25T02:10:40.884Z,16.73
2017-10-25T02:11:53.579Z,16.7
2017-10-25T02:13:38.020Z,16.7
2017-10-25T02:14:51.266Z,16.73
2017-10-25T02:16:02.940Z,16.6
2017-10-25T02:17:15.726Z,16.67
2017-10-25T02:18:26.862Z,16.6
2017-10-25T02:19:39.592Z,16.52
2017-10-25T02:20:51.810Z,16.63
2017-10-25T02:22:04.520Z,16.58
2017-10-25T02:23:17.247Z,16.58
2017-10-25T02:24:29.993Z,16.6
2017-10-25T02:25:42.747Z,16.52
2017-10-25T02:26:55.483Z,16.5
2017-10-25T02:28:08.226Z,16.58
2017-10-25T02:29:21.492Z,16.49
2017-10-25T02:30:34.793Z,16.49
2017-10-25T02:31:47.594Z,16.48
2017-10-25T02:33:00.363Z,16.48
2017-10-25T02:34:13.109Z,16.49
2017-10-25T02:35:25.819Z,16.49
2017-10-25T02:36:38.572Z,16.46
2017-10-25T02:37:51.826Z,16.41
2017-10-25T02:39:04.557Z,16.48
2017-10-25T02:40:17.298Z,16.52
2017-10-25T02:41:29.528Z,16.5
2017-10-25T02:42:42.821Z,16.46
2017-10-25T02:43:55.513Z,16.5
2017-10-25T02:45:08.793Z,16.5
2017-10-25T02:46:21.571Z,16.45
2017-10-25T02:47:34.829Z,16.46
2017-10-25T02:48:47.616Z,16.49
2017-10-25T02:50:00.941Z,16.49
2017-10-25T02:51:14.198Z,16.48
2017-10-25T02:52:26.962Z,16.57
2017-10-25T02:53:39.663Z,16.52
2017-10-25T02:54:52.402Z,16.53
2017-10-25T02:56:04.104Z,16.52
2017-10-25T02:57:16.323Z,16.63
2017-10-25T02:58:29.637Z,16.46
2017-10-25T02:59:41.874Z,16.6
2017-10-25T03:00:54.094Z,16.58
2017-10-25T03:02:07.352Z,16.58
2017-10-25T03:03:19.558Z,16.67
2017-10-25T03:04:32.284Z,16.63
2017-10-25T03:05:45.019Z,16.52
2017-10-25T03:06:57.723Z,16.61
2017-10-25T03:08:10.251Z,16.67
2017-10-25T03:09:22.471Z,16.68
2017-10-25T03:10:35.722Z,16.68
2017-10-25T03:11:47.941Z,16.66
2017-10-25T03:13:00.694Z,16.58
2017-10-25T03:14:13.934Z,16.71
2017-10-25T03:15:26.682Z,16.68
2017-10-25T03:16:39.930Z,16.7
2017-10-25T03:17:53.186Z,16.66
2017-10-25T03:19:06.430Z,16.7
2017-10-25T03:20:19.153Z,16.6
2017-10-25T03:21:32.436Z,16.61
2017-10-25T03:22:45.707Z,16.7
2017-10-25T03:23:58.461Z,16.6
2017-10-25T03:25:11.747Z,16.76
2017-10-25T03:26:24.538Z,16.61
2017-10-25T03:27:37.300Z,16.67
2017-10-25T03:28:50.600Z,16.64
2017-10-25T03:30:03.875Z,16.6
2017-10-25T03:31:17.149Z,16.6
2017-10-25T03:32:29.335Z,16.61
2017-10-25T03:33:41.004Z,16.6
2017-10-25T03:34:54.272Z,16.61
2017-10-25T03:36:07.017Z,16.63
2017-10-25T03:37:19.209Z,16.6
2017-10-25T03:38:31.379Z,16.71
2017-10-25T03:39:44.054Z,16.61
2017-10-25T03:40:57.339Z,16.61
2017-10-25T03:42:10.094Z,16.66
2017-10-25T03:43:23.333Z,16.7
2017-10-25T03:44:35.028Z,16.66
2017-10-25T03:45:47.762Z,16.66
2017-10-25T03:47:00.512Z,16.63
2017-10-25T03:48:13.776Z,16.66
2017-10-25T03:49:27.048Z,16.73
2017-10-25T03:50:39.773Z,16.7
2017-10-25T03:51:53.048Z,16.73
2017-10-25T03:53:06.334Z,16.67
2017-10-25T03:54:17.492Z,16.82
2017-10-25T03:55:30.250Z,16.73
2017-10-25T03:56:42.959Z,16.76
2017-10-25T03:57:55.692Z,16.76
2017-10-25T03:59:08.970Z,16.71
2017-10-25T04:00:21.707Z,16.67
2017-10-25T04:01:34.427Z,16.68
2017-10-25T04:02:47.166Z,16.71
2017-10-25T04:04:00.422Z,16.79
2017-10-25T04:05:12.133Z,16.75
2017-10-25T04:06:24.874Z,16.78
2017-10-25T04:07:37.597Z,16.78
2017-10-25T04:08:49.779Z,16.73
2017-10-25T04:10:03.038Z,16.73
2017-10-25T04:11:15.810Z,16.71
2017-10-25T04:12:29.069Z,16.61
2017-10-25T04:13:40.737Z,16.76
2017-10-25T04:14:53.502Z,16.71
2017-10-25T04:16:06.745Z,16.61
2017-10-25T04:17:19.994Z,16.71
2017-10-25T04:18:32.726Z,16.7
2017-10-25T04:19:45.473Z,16.63
2017-10-25T04:20:58.202Z,16.73
2017-10-25T04:22:10.420Z,16.7
2017-10-25T04:23:23.167Z,16.7
2017-10-25T04:24:35.888Z,16.7
2017-10-25T04:25:48.595Z,16.71
2017-10-25T04:27:01.833Z,16.64
2017-10-25T04:28:15.093Z,16.66
2017-10-25T04:29:27.830Z,16.61
2017-10-25T04:30:41.091Z,16.67
2017-10-25T04:31:54.379Z,16.66
2017-10-25T04:33:07.663Z,16.67
2017-10-25T04:34:21.007Z,16.61
2017-10-25T04:35:34.282Z,16.76
2017-10-25T04:36:47.553Z,16.7
2017-10-25T04:38:00.803Z,16.75
2017-10-25T04:39:13.541Z,16.71
2017-10-25T04:40:25.760Z,16.68
2017-10-25T04:41:37.991Z,16.67
2017-10-25T04:42:50.190Z,16.78
2017-10-25T04:44:03.433Z,16.73
2017-10-25T04:45:15.656Z,16.7
2017-10-25T04:46:27.819Z,16.78
2017-10-25T04:47:39.522Z,16.78
2017-10-25T04:48:52.279Z,16.75
2017-10-25T04:50:05.519Z,16.76
2017-10-25T04:51:17.710Z,16.78
2017-10-25T04:52:29.894Z,16.63
2017-10-25T04:53:42.634Z,16.64
2017-10-25T04:54:55.904Z,16.75
2017-10-25T04:56:09.146Z,16.71
2017-10-25T04:57:20.811Z,16.64
2017-10-25T04:58:33.537Z,16.66
2017-10-25T04:59:46.858Z,16.71
2017-10-25T05:00:59.069Z,16.66
2017-10-25T05:02:10.855Z,16.75
2017-10-25T05:03:24.132Z,16.67
2017-10-25T05:04:36.857Z,16.63
2017-10-25T05:05:49.607Z,16.61
2017-10-25T05:07:01.847Z,16.66
2017-10-25T05:08:15.139Z,16.7
2017-10-25T05:09:28.390Z,16.7
2017-10-25T05:10:41.104Z,16.71
2017-10-25T05:11:53.841Z,16.68
2017-10-25T05:13:07.071Z,16.63
2017-10-25T05:14:19.278Z,16.61
2017-10-25T05:15:32.581Z,16.63
2017-10-25T05:16:45.888Z,16.66
2017-10-25T05:17:58.121Z,16.73
2017-10-25T05:19:10.866Z,16.76
2017-10-25T05:20:24.122Z,16.73
2017-10-25T05:21:36.854Z,16.75
2017-10-25T05:22:49.571Z,16.71
2017-10-25T05:24:02.313Z,16.71
2017-10-25T05:25:15.579Z,16.73
2017-10-25T05:26:28.352Z,16.71
2017-10-25T05:27:41.626Z,16.71
2017-10-25T05:28:54.913Z,16.7
2017-10-25T05:30:08.215Z,16.68
2017-10-25T05:31:21.497Z,16.79
2017-10-25T05:32:33.719Z,16.83
2017-10-25T05:33:46.463Z,16.86
2017-10-25T05:34:59.737Z,16.73
2017-10-25T05:36:12.472Z,16.81
2017-10-25T05:37:25.781Z,16.89
2017-10-25T05:38:38.012Z,16.82
2017-10-25T05:39:51.283Z,16.71
2017-10-25T05:41:04.554Z,16.82
2017-10-25T05:42:17.276Z,16.82
2017-10-25T05:43:30.536Z,16.83
2017-10-25T05:44:43.826Z,16.82
2017-10-25T05:45:57.068Z,16.86
2017-10-25T05:47:10.349Z,16.82
2017-10-25T05:48:23.044Z,16.82
2017-10-25T05:49:35.291Z,16.83
2017-10-25T05:50:48.577Z,16.93
2017-10-25T05:52:01.337Z,16.85
2017-10-25T05:53:14.595Z,16.85
2017-10-25T05:54:27.861Z,16.88
2017-10-25T05:55:40.573Z,16.88
2017-10-25T05:56:53.856Z,16.96
2017-10-25T05:58:07.154Z,16.98
2017-10-25T05:59:20.461Z,17
2017-10-25T06:00:33.231Z,16.94
2017-10-25T06:01:46.483Z,16.93
2017-10-25T06:02:59.748Z,16.97
2017-10-25T06:04:13.054Z,16.98
2017-10-25T06:05:26.295Z,16.97
2017-10-25T06:06:39.060Z,16.97
2017-10-25T06:07:52.316Z,16.98
2017-10-25T06:09:05.082Z,17.01
2017-10-25T06:10:17.796Z,17
2017-10-25T06:11:31.077Z,17.04
2017-10-25T06:12:43.820Z,17.04
2017-10-25T06:13:57.090Z,17.07
2017-10-25T06:15:09.281Z,17.07
2017-10-25T06:16:22.509Z,17.16
2017-10-25T06:17:35.777Z,17.18
2017-10-25T06:18:49.036Z,17.11
2017-10-25T06:20:01.236Z,17.19
2017-10-25T06:21:13.960Z,17.18
2017-10-25T06:22:26.156Z,17.16
2017-10-25T06:23:38.929Z,17.15
2017-10-25T06:24:52.195Z,17.21
2017-10-25T06:26:05.440Z,17.16
2017-10-25T06:27:18.703Z,17.19
2017-10-25T06:28:31.431Z,17.14
2017-10-25T06:29:44.229Z,17.22
2017-10-25T06:30:57.525Z,17.19
2017-10-25T06:32:10.801Z,17.23
2017-10-25T06:33:23.536Z,17.23
2017-10-25T06:34:36.820Z,17.3
2017-10-25T06:35:49.545Z,17.21
2017-10-25T06:37:02.289Z,17.26
2017-10-25T06:38:15.550Z,17.25
2017-10-25T06:39:28.317Z,17.34
2017-10-25T06:40:40.669Z,17.25
2017-10-25T06:41:53.763Z,17.23
2017-10-25T06:43:06.523Z,17.25
2017-10-25T06:44:19.236Z,17.34
2017-10-25T06:45:32.511Z,17.34
2017-10-25T06:46:45.758Z,17.3
2017-10-25T06:47:58.508Z,17.33
2017-10-25T06:49:10.690Z,17.33
2017-10-25T06:50:23.973Z,17.37
2017-10-25T06:51:37.237Z,17.33
2017-10-25T06:52:50.506Z,17.3
2017-10-25T06:54:02.209Z,17.37
2017-10-25T06:55:14.380Z,17.34
2017-10-25T06:56:27.099Z,17.23
2017-10-25T06:57:39.298Z,17.33
2017-10-25T06:58:52.566Z,17.31
2017-10-25T07:00:04.784Z,17.33
2017-10-25T07:01:17.490Z,17.34
2017-10-25T07:02:30.195Z,17.38
2017-10-25T07:03:43.454Z,17.4
2017-10-25T07:04:56.702Z,17.34
2017-10-25T07:06:09.978Z,17.25
2017-10-25T07:07:23.250Z,17.34
2017-10-25T07:08:35.459Z,17.31
2017-10-25T07:09:48.841Z,17.38
2017-10-25T07:11:02.104Z,17.23
2017-10-25T07:12:14.309Z,17.21
2017-10-25T07:13:26.495Z,17.36
2017-10-25T07:14:39.770Z,17.28
2017-10-25T07:15:52.519Z,17.37
2017-10-25T07:17:05.285Z,17.38
2017-10-25T07:18:18.035Z,17.31
2017-10-25T07:19:30.742Z,17.26
2017-10-25T07:20:44.022Z,17.31
2017-10-25T07:21:57.254Z,17.25
2017-10-25T07:23:10.518Z,17.28
2017-10-25T07:24:23.792Z,17.3
2017-10-25T07:25:37.062Z,17.23
2017-10-25T07:26:50.332Z,17.38
2017-10-25T07:28:03.620Z,17.3
2017-10-25T07:29:16.376Z,17.36
2017-10-25T07:30:29.083Z,17.28
2017-10-25T07:31:42.320Z,17.31
2017-10-25T07:32:55.557Z,17.33
2017-10-25T07:34:08.278Z,17.3
2017-10-25T07:35:21.483Z,17.36
2017-10-25T07:36:34.194Z,17.3
2017-10-25T07:37:47.443Z,17.28
2017-10-25T07:39:00.155Z,17.3
2017-10-25T07:40:12.909Z,17.3
2017-10-25T07:41:26.147Z,17.33
2017-10-25T07:42:39.365Z,17.34
2017-10-25T07:43:52.088Z,17.31
2017-10-25T07:45:04.811Z,17.3
2017-10-25T07:46:17.544Z,17.31
2017-10-25T07:47:29.760Z,17.28
2017-10-25T07:48:42.489Z,17.33
2017-10-25T07:49:55.709Z,17.3
2017-10-25T07:51:08.456Z,17.4
2017-10-25T07:52:21.708Z,17.3
2017-10-25T07:53:34.421Z,17.3
2017-10-25T07:54:46.617Z,17.34
2017-10-25T07:55:58.800Z,17.36
2017-10-25T07:57:12.080Z,17.26
2017-10-25T07:58:25.363Z,17.34
2017-10-25T07:59:37.610Z,17.31
2017-10-25T08:00:50.312Z,17.26
2017-10-25T08:02:03.597Z,17.38
2017-10-25T08:03:16.366Z,17.37
2017-10-25T08:04:29.647Z,17.33
2017-10-25T08:05:42.370Z,17.3
2017-10-25T08:06:55.654Z,17.33
2017-10-25T08:08:08.915Z,17.37
2017-10-25T08:09:21.615Z,17.31
2017-10-25T08:10:34.366Z,17.31
2017-10-25T08:11:47.064Z,17.33
2017-10-25T08:13:00.346Z,17.31
2017-10-25T08:14:13.648Z,17.33
2017-10-25T08:15:26.432Z,17.36
2017-10-25T08:16:39.693Z,17.3
2017-10-25T08:17:52.410Z,17.33
2017-10-25T08:19:05.118Z,17.41
2017-10-25T08:20:18.393Z,17.25
2017-10-25T08:21:31.094Z,17.4
2017-10-25T08:22:43.842Z,17.38
2017-10-25T08:23:56.025Z,17.38
2017-10-25T08:25:09.271Z,17.28
2017-10-25T08:26:21.472Z,17.38
2017-10-25T08:27:34.233Z,17.23
2017-10-25T08:28:46.963Z,17.4
2017-10-25T08:30:00.249Z,17.22
2017-10-25T08:31:13.494Z,17.31
2017-10-25T08:32:25.701Z,17.3
2017-10-25T08:33:38.957Z,17.31
2017-10-25T08:34:51.693Z,17.4
2017-10-25T08:36:03.908Z,17.26
2017-10-25T08:37:16.658Z,17.34
2017-10-25T08:38:29.468Z,17.37
2017-10-25T08:39:42.994Z,17.3
2017-10-25T08:40:56.344Z,17.26
2017-10-25T08:42:09.151Z,17.38
2017-10-25T08:43:21.955Z,17.23
2017-10-25T08:44:34.703Z,17.21
2017-10-25T08:45:48.055Z,17.4
2017-10-25T08:47:01.277Z,17.38
2017-10-25T08:48:14.550Z,17.28
2017-10-25T08:49:27.838Z,17.31
2017-10-25T08:50:41.104Z,17.31
2017-10-25T08:51:54.384Z,17.34
2017-10-25T08:53:06.594Z,17.3
2017-10-25T08:54:19.904Z,17.31
2017-10-25T08:55:33.210Z,17.36
2017-10-25T08:56:46.505Z,17.33
2017-10-25T08:57:59.761Z,17.28
2017-10-25T08:59:12.482Z,17.31
2017-10-25T09:00:25.737Z,17.3
2017-10-25T09:01:38.594Z,17.43
2017-10-25T09:02:52.351Z,17.31
2017-10-25T09:04:05.640Z,17.36
2017-10-25T09:05:18.965Z,17.37
2017-10-25T09:06:32.890Z,17.4
2017-10-25T09:07:46.325Z,17.33
2017-10-25T09:08:59.600Z,17.43
2017-10-25T09:10:12.919Z,17.36
2017-10-25T09:11:26.245Z,17.43
2017-10-25T09:12:39.589Z,17.4
2017-10-25T09:13:53.530Z,17.41
2017-10-25T09:15:07.168Z,17.4
2017-10-25T09:16:20.003Z,17.41
2017-10-25T09:17:33.327Z,17.38
2017-10-25T09:18:46.059Z,17.43
2017-10-25T09:19:59.330Z,17.54
2017-10-25T09:21:12.048Z,17.51
2017-10-25T09:22:25.311Z,17.7
2017-10-25T09:23:38.069Z,17.62
2017-10-25T09:24:51.386Z,17.58
2017-10-25T09:26:03.575Z,17.63
2017-10-25T09:27:16.354Z,17.62
2017-10-25T09:28:29.627Z,17.68
2017-10-25T09:29:42.361Z,17.68
2017-10-25T09:30:55.613Z,17.66
2017-10-25T09:32:08.365Z,17.64
2017-10-25T09:33:21.610Z,17.59
2017-10-25T09:34:34.346Z,17.7
2017-10-25T09:35:47.075Z,17.66
2017-10-25T09:36:59.818Z,17.81
2017-10-25T09:38:12.583Z,17.81
2017-10-25T09:39:24.779Z,17.81
2017-10-25T09:40:38.043Z,17.78
2017-10-25T09:41:50.814Z,17.81
2017-10-25T09:43:04.082Z,17.87
2017-10-25T09:44:16.325Z,17.75
2017-10-25T09:45:29.603Z,17.77
2017-10-25T09:46:42.871Z,17.64
2017-10-25T09:47:56.144Z,17.79
2017-10-25T09:49:09.458Z,17.79
2017-10-25T09:50:22.713Z,17.82
2017-10-25T09:51:35.987Z,17.78
2017-10-25T09:52:49.249Z,17.9
2017-10-25T09:54:02.011Z,17.82
2017-10-25T09:55:14.749Z,17.84
2017-10-25T09:56:28.042Z,17.87
2017-10-25T09:57:40.758Z,17.9
2017-10-25T09:58:53.472Z,17.82
2017-10-25T10:00:06.205Z,17.86
2017-10-25T10:01:18.963Z,17.84
2017-10-25T10:02:31.024Z,17.81
2017-10-25T10:03:44.734Z,17.79
2017-10-25T10:04:58.593Z,17.81
2017-10-25T10:06:11.331Z,17.81
2017-10-25T10:07:24.570Z,17.81
2017-10-25T10:08:37.358Z,17.86
2017-10-25T10:09:50.663Z,17.93
2017-10-25T10:11:04.666Z,17.96
2017-10-25T10:12:18.037Z,18.07
2017-10-25T10:13:32.116Z,18.11
2017-10-25T10:14:45.416Z,18.12
2017-10-25T10:15:59.765Z,18.25
2017-10-25T10:17:12.460Z,18.23
2017-10-25T10:18:25.219Z,18.35
2017-10-25T10:19:38.047Z,18.36
2017-10-25T10:20:50.818Z,18.36
2017-10-25T10:22:04.083Z,18.25
2017-10-25T10:23:17.977Z,18.32
2017-10-25T10:24:30.159Z,18.35
2017-10-25T10:25:44.060Z,18.29
2017-10-25T10:26:57.401Z,18.18
2017-10-25T10:28:10.139Z,18.18
2017-10-25T10:29:22.328Z,18.29
2017-10-25T10:30:36.257Z,18.21
2017-10-25T10:31:49.028Z,18.32
2017-10-25T10:33:01.742Z,18.3
2017-10-25T10:34:15.958Z,18.42
2017-10-25T10:35:29.497Z,18.37
2017-10-25T10:36:41.632Z,18.62
2017-10-25T10:37:55.555Z,18.72
2017-10-25T10:39:08.900Z,18.78
2017-10-25T10:40:21.666Z,18.85
2017-10-25T10:41:35.813Z,18.85
2017-10-25T10:42:48.479Z,18.95
2017-10-25T10:44:01.221Z,19.02
2017-10-25T10:45:15.063Z,18.98
2017-10-25T10:46:28.279Z,18.75
2017-10-25T10:47:42.132Z,18.7
2017-10-25T10:48:55.382Z,18.92
2017-10-25T10:50:08.061Z,18.85
2017-10-25T10:51:21.604Z,19.06
2017-10-25T10:52:34.272Z,19.18
2017-10-25T10:53:47.482Z,19.36
2017-10-25T10:55:00.676Z,19.32
2017-10-25T10:56:13.869Z,19.54
2017-10-25T10:57:26.324Z,19.48
2017-10-25T10:58:39.799Z,19.77
2017-10-25T10:59:52.877Z,19.95
2017-10-25T11:01:06.422Z,19.83
2017-10-25T11:02:19.035Z,19.96
2017-10-25T11:03:32.062Z,19.96
2017-10-25T11:04:45.568Z,19.86
2017-10-25T11:05:59.013Z,19.94
2017-10-25T11:07:10.778Z,20.1
2017-10-25T11:08:23.063Z,19.86
2017-10-25T11:09:36.375Z,19.78
2017-10-25T11:10:49.166Z,19.73
2017-10-25T11:12:02.405Z,19.71
2017-10-25T11:13:15.131Z,19.91
2017-10-25T11:14:28.378Z,20.1
2017-10-25T11:15:41.132Z,20.2
2017-10-25T11:16:53.884Z,20.43
2017-10-25T11:18:06.602Z,20.52
2017-10-25T11:19:19.861Z,20.36
2017-10-25T11:20:32.604Z,20.43
2017-10-25T11:21:45.336Z,20.61
2017-10-25T11:22:57.593Z,20.59
2017-10-25T11:24:09.873Z,20.95
2017-10-25T11:25:22.121Z,21.12
2017-10-25T11:26:34.993Z,21.12
2017-10-25T11:27:48.090Z,21.24
2017-10-25T11:29:00.829Z,21.42
2017-10-25T11:30:13.074Z,21.43
2017-10-25T11:31:25.815Z,21.22
2017-10-25T11:32:38.681Z,21.12
2017-10-25T11:33:50.929Z,21.01
2017-10-25T11:35:03.669Z,20.85
2017-10-25T11:36:16.399Z,21.22
2017-10-25T11:37:29.734Z,21.24
2017-10-25T11:38:41.926Z,21.52
2017-10-25T11:39:55.298Z,21.42
2017-10-25T11:41:08.679Z,21.22
2017-10-25T11:42:20.895Z,20.89
2017-10-25T11:43:34.172Z,20.87
2017-10-25T11:44:46.918Z,20.62
2017-10-25T11:45:57.559Z,20.48
2017-10-25T11:47:10.295Z,20.57
2017-10-25T11:48:22.963Z,20.61
2017-10-25T11:49:36.283Z,20.55
2017-10-25T11:50:48.491Z,20.67
2017-10-25T11:52:01.772Z,20.95
2017-10-25T11:53:15.664Z,21.09
2017-10-25T11:54:27.879Z,21.24
2017-10-25T11:55:41.224Z,21.38
2017-10-25T11:56:54.482Z,22
2017-10-25T11:58:06.707Z,22.24
2017-10-25T11:59:19.988Z,22.43
2017-10-25T12:00:33.927Z,22.9
2017-10-25T12:01:47.212Z,23.28
2017-10-25T12:03:00.511Z,23.01
2017-10-25T12:04:13.799Z,22.45
2017-10-25T12:05:26.107Z,22.65
2017-10-25T12:06:39.997Z,22.8
2017-10-25T12:07:52.775Z,22.49
2017-10-25T12:09:08.526Z,22.25
2017-10-25T12:10:20.765Z,22.2
2017-10-25T12:11:33.596Z,22.39
2017-10-25T12:12:46.820Z,22.12
2017-10-25T12:14:00.773Z,22.43
2017-10-25T12:15:14.057Z,22.73
2017-10-25T12:16:27.403Z,23.16
2017-10-25T12:17:40.010Z,23.57
2017-10-25T12:18:52.195Z,23.98
2017-10-25T12:20:05.970Z,24.06
2017-10-25T12:21:18.625Z,24.13
2017-10-25T12:22:31.391Z,24.53
2017-10-25T12:23:44.199Z,24.62
2017-10-25T12:24:57.544Z,24.08
2017-10-25T12:26:10.829Z,23.75
2017-10-25T12:27:24.133Z,23.87
2017-10-25T12:28:36.966Z,23.73
2017-10-25T12:29:49.731Z,23.47
2017-10-25T12:31:02.504Z,23.36
2017-10-25T12:32:15.241Z,23.38
2017-10-25T12:33:27.990Z,23.28
2017-10-25T12:34:40.621Z,23.72
2017-10-25T12:35:53.925Z,23.4
2017-10-25T12:37:06.214Z,23.07
2017-10-25T12:38:19.510Z,23.09
2017-10-25T12:39:32.868Z,23.25
2017-10-25T12:40:45.103Z,23.51
2017-10-25T12:41:57.375Z,24.09
2017-10-25T12:43:10.743Z,24.61
2017-10-25T12:44:23.524Z,25
2017-10-25T12:45:35.760Z,25.15
2017-10-25T12:46:49.068Z,25.05
2017-10-25T12:48:01.798Z,24.91
2017-10-25T12:49:15.055Z,24.85
2017-10-25T12:50:27.260Z,24.83
2017-10-25T12:51:40.564Z,24.96
2017-10-25T12:52:53.329Z,25.36
2017-10-25T12:54:06.768Z,25.94
2017-10-25T12:55:19.501Z,26.21
2017-10-25T12:56:32.793Z,26.51
2017-10-25T12:57:45.545Z,26.77
2017-10-25T12:58:58.882Z,27.32
2017-10-25T13:00:11.080Z,27.43
2017-10-25T13:01:24.574Z,27.81
2017-10-25T13:02:37.356Z,27.99
2017-10-25T13:03:50.125Z,28.11
2017-10-25T13:05:03.409Z,28.48
2017-10-25T13:06:16.178Z,28.62
2017-10-25T13:07:29.491Z,28.68
2017-10-25T13:08:42.877Z,28.78
2017-10-25T13:09:55.217Z,28.92
2017-10-25T13:11:08.523Z,28.12
2017-10-25T13:12:21.881Z,27.1
2017-10-25T13:13:34.654Z,26.29
2017-10-25T13:14:47.936Z,25.67
2017-10-25T13:16:00.718Z,25.67
2017-10-25T13:17:12.995Z,25.3
2017-10-25T13:18:25.732Z,24.9
2017-10-25T13:19:38.551Z,25.02
2017-10-25T13:20:51.308Z,25.58
2017-10-25T13:22:04.044Z,26.33
2017-10-25T13:23:16.829Z,26.81
2017-10-25T13:24:28.559Z,27.24
2017-10-25T13:25:41.355Z,27.4
2017-10-25T13:26:54.609Z,27.47
2017-10-25T13:28:07.373Z,27.81
2017-10-25T13:29:20.124Z,27.94
2017-10-25T13:30:32.879Z,27.85
2017-10-25T13:31:46.158Z,27.47
2017-10-25T13:32:58.413Z,26.28
2017-10-25T13:34:11.185Z,25.65
2017-10-25T13:35:23.950Z,25.25
2017-10-25T13:36:36.702Z,25.58
2017-10-25T13:37:48.435Z,26.21
2017-10-25T13:39:01.181Z,26.44
2017-10-25T13:40:13.919Z,26.44
2017-10-25T13:41:26.138Z,26.57
2017-10-25T13:42:39.466Z,26.8
2017-10-25T13:43:51.692Z,27.19
2017-10-25T13:45:04.994Z,27.06
2017-10-25T13:46:17.763Z,27.32
2017-10-25T13:47:30.501Z,27.31
2017-10-25T13:48:43.322Z,27.37
2017-10-25T13:49:55.596Z,27.82
2017-10-25T13:51:08.888Z,27.88
2017-10-25T13:52:20.591Z,28.14
2017-10-25T13:53:33.875Z,28.61
2017-10-25T13:54:47.343Z,28.39
2017-10-25T13:55:59.800Z,27.78
2017-10-25T13:57:12.570Z,27.34
2017-10-25T13:58:25.877Z,27.14
2017-10-25T13:59:39.220Z,27.18
2017-10-25T14:00:52.212Z,27.47
2017-10-25T14:02:05.528Z,28.03
2017-10-25T14:03:18.753Z,28.43
2017-10-25T14:04:32.088Z,28.56
2017-10-25T14:05:44.328Z,28.71
2017-10-25T14:06:56.575Z,28.77
2017-10-25T14:08:09.312Z,28.93
2017-10-25T14:09:22.101Z,28.88
2017-10-25T14:10:35.480Z,28.67
2017-10-25T14:11:47.397Z,28.55
2017-10-25T14:13:00.146Z,28.36
2017-10-25T14:14:12.928Z,28.18
2017-10-25T14:15:25.662Z,28.55
2017-10-25T14:16:38.404Z,28.89
2017-10-25T14:17:51.708Z,29.24
2017-10-25T14:19:04.496Z,29.51
2017-10-25T14:20:17.263Z,28.98
2017-10-25T14:21:30.061Z,28.92
2017-10-25T14:22:42.801Z,28.39
2017-10-25T14:23:55.556Z,28.04
2017-10-25T14:25:08.361Z,27.87
2017-10-25T14:26:21.635Z,28.19
2017-10-25T14:27:33.867Z,28.29
2017-10-25T14:28:47.214Z,28.67
2017-10-25T14:30:00.547Z,29.23
2017-10-25T14:31:13.844Z,29.63
2017-10-25T14:32:27.145Z,30.11
2017-10-25T14:33:39.908Z,30.31
2017-10-25T14:34:52.635Z,30.27
2017-10-25T14:36:05.936Z,30.32
2017-10-25T14:37:18.125Z,30.53
2017-10-25T14:38:31.456Z,30.99
2017-10-25T14:39:44.098Z,30.8
2017-10-25T14:40:56.853Z,30.49
2017-10-25T14:42:08.560Z,30.53
2017-10-25T14:43:20.802Z,30.6
2017-10-25T14:44:33.014Z,30.11
2017-10-25T14:45:46.304Z,29.74
2017-10-25T14:47:00.191Z,29.39
2017-10-25T14:48:13.515Z,29.31
2017-10-25T14:49:26.822Z,29.64
2017-10-25T14:50:39.576Z,30.01
2017-10-25T14:51:52.852Z,30.32
2017-10-25T14:53:05.610Z,30.46
2017-10-25T14:54:18.906Z,30.75
2017-10-25T14:55:31.649Z,31.17
2017-10-25T14:56:43.852Z,31.76
2017-10-25T14:57:57.130Z,32.35
2017-10-25T14:59:09.358Z,32.47
2017-10-25T15:00:22.134Z,32.7
2017-10-25T15:01:35.400Z,31.29
2017-10-25T15:02:48.155Z,30.61
2017-10-25T15:04:00.338Z,30.61
2017-10-25T15:05:13.080Z,30.99
2017-10-25T15:06:26.402Z,31.68
2017-10-25T15:07:39.204Z,32.29
2017-10-25T15:08:52.478Z,32.04
2017-10-25T15:10:04.726Z,31.92
2017-10-25T15:11:17.519Z,31.99
2017-10-25T15:12:30.298Z,31.53
2017-10-25T15:13:43.079Z,31.25
2017-10-25T15:14:55.811Z,31.16
2017-10-25T15:16:08.617Z,31.73
2017-10-25T15:17:21.454Z,32.51
2017-10-25T15:18:33.172Z,32.77
2017-10-25T15:19:45.406Z,33.03
2017-10-25T15:20:58.710Z,33.23
2017-10-25T15:22:10.930Z,32.82
2017-10-25T15:23:24.213Z,32.59
2017-10-25T15:24:36.994Z,32.66
2017-10-25T15:25:50.269Z,32.52
2017-10-25T15:27:03.040Z,32.82
2017-10-25T15:28:15.804Z,32.96
2017-10-25T15:29:27.528Z,33.19
2017-10-25T15:30:39.729Z,33.82
2017-10-25T15:31:53.041Z,34.02
2017-10-25T15:33:06.327Z,34.24
2017-10-25T15:34:19.122Z,34.19
2017-10-25T15:35:31.093Z,32.66
2017-10-25T15:36:43.570Z,32.69
2017-10-25T15:37:56.367Z,33.07
2017-10-25T15:39:09.148Z,33.18
2017-10-25T15:40:21.357Z,32.97
2017-10-25T15:41:34.146Z,32.88
2017-10-25T15:42:47.402Z,33.19
2017-10-25T15:44:00.705Z,33.45